Time;durP1;ratioP1;P1;durP2;ratioP2;P2;SDS_P1;SDS_P2;PMS_P1;PMS_P2;Temp;Humidity;BMP_temperature;BMP_pressure;BME280_temperature;BME280_humidity;BME280_pressure;Samples;Min_cycle;Max_cycle;Signal;HPM_P1;HPM_P2
2022/07/03 00:00:00;;;;;;;1.33;0.65;;;24.20;55.20;;;;;;4492587;31;20522;-68
2022/07/03 00:02:25;;;;;;;1.20;0.70;;;24.10;55.10;;;;;;4494007;31;20091;-68
2022/07/03 00:04:51;;;;;;;0.98;0.60;;;24.10;55.10;;;;;;4493751;31;20057;-68
2022/07/03 00:07:17;;;;;;;2.75;0.90;;;24.10;55.10;;;;;;4493906;31;20229;-68
2022/07/03 00:09:43;;;;;;;1.38;0.60;;;24.10;55.10;;;;;;4494106;31;20073;-68
2022/07/03 00:12:09;;;;;;;2.13;0.60;;;24.10;55.10;;;;;;4493898;31;20111;-68
2022/07/03 00:14:36;;;;;;;1.75;0.50;;;24.10;55.10;;;;;;4493826;31;20227;-68
2022/07/03 00:17:02;;;;;;;2.28;1.02;;;24.10;55.10;;;;;;4494060;31;20057;-68
2022/07/03 00:19:28;;;;;;;1.02;0.60;;;24.10;55.10;;;;;;4493792;31;20544;-68
2022/07/03 00:21:57;;;;;;;3.78;0.70;;;24.10;55.10;;;;;;4492686;31;20077;-68
2022/07/03 00:24:39;;;;;;;0.93;0.68;;;24.10;55.20;;;;;;4493955;31;20231;-68
2022/07/03 00:27:08;;;;;;;1.30;0.50;;;24.10;55.10;;;;;;4493610;31;20101;-68
2022/07/03 00:29:38;;;;;;;1.25;0.60;;;24.10;55.20;;;;;;4493663;31;20073;-68
2022/07/03 00:32:10;;;;;;;1.42;0.57;;;24.10;55.20;;;;;;4493599;31;20103;-69
2022/07/03 00:34:38;;;;;;;1.37;0.60;;;24.10;55.20;;;;;;4494198;31;20069;-68
2022/07/03 00:37:08;;;;;;;1.38;0.68;;;24.10;55.20;;;;;;4493272;31;20077;-69
2022/07/03 00:39:39;;;;;;;1.40;0.68;;;24.10;55.20;;;;;;4493218;31;20098;-69
2022/07/03 00:42:07;;;;;;;0.98;0.50;;;24.10;55.20;;;;;;4493765;31;20113;-69
2022/07/03 00:44:55;;;;;;;1.52;0.70;;;24.10;55.20;;;;;;4493511;31;20289;-68
2022/07/03 00:47:23;;;;;;;1.15;0.65;;;24.00;55.20;;;;;;4492803;31;20142;-68
2022/07/03 00:49:52;;;;;;;2.03;0.70;;;24.00;55.10;;;;;;4493120;31;20166;-69
2022/07/03 00:52:19;;;;;;;1.35;0.55;;;24.00;55.20;;;;;;4493345;31;20069;-68
2022/07/03 00:54:55;;;;;;;1.95;0.80;;;24.00;55.20;;;;;;4493167;31;20105;-68
2022/07/03 00:57:23;;;;;;;1.33;0.68;;;24.00;55.20;;;;;;4493213;31;20069;-68
2022/07/03 00:59:50;;;;;;;1.17;0.50;;;24.00;55.20;;;;;;4493345;31;20096;-69
2022/07/03 01:02:40;;;;;;;2.03;0.60;;;24.00;55.20;;;;;;4493377;31;20085;-69
2022/07/03 01:05:09;;;;;;;2.60;0.50;;;24.00;55.10;;;;;;4493137;31;20158;-69
2022/07/03 01:07:51;;;;;;;1.33;0.60;;;24.00;55.20;;;;;;4492992;31;20435;-68
2022/07/03 01:10:51;;;;;;;1.25;0.57;;;24.00;55.20;;;;;;4492928;31;20065;-68
2022/07/03 01:13:26;;;;;;;1.02;0.60;;;24.00;55.20;;;;;;4492781;31;20092;-68
2022/07/03 01:16:02;;;;;;;1.23;0.60;;;24.00;55.20;;;;;;4492820;31;20407;-68
2022/07/03 01:18:58;;;;;;;0.85;0.57;;;24.00;55.20;;;;;;4492960;31;20073;-68
2022/07/03 01:21:40;;;;;;;1.60;0.60;;;24.00;55.20;;;;;;4488744;31;20199;-69
2022/07/03 01:24:36;;;;;;;0.65;0.32;;;24.00;55.20;;;;;;4493171;31;20500;-68
2022/07/03 01:27:07;;;;;;;0.98;0.60;;;24.00;55.20;;;;;;4492723;31;20087;-68
2022/07/03 01:29:59;;;;;;;1.42;0.70;;;24.00;55.20;;;;;;4492923;31;20088;-69
2022/07/03 01:32:35;;;;;;;1.15;0.50;;;24.00;55.20;;;;;;4493040;31;20644;-69
2022/07/03 01:35:03;;;;;;;2.25;0.50;;;24.00;55.20;;;;;;4492331;31;20495;-68
2022/07/03 01:37:33;;;;;;;1.05;0.52;;;24.00;55.30;;;;;;4492569;31;20091;-68
2022/07/03 01:40:01;;;;;;;1.10;0.50;;;24.00;55.20;;;;;;4492836;31;20120;-68
2022/07/03 01:42:28;;;;;;;1.67;0.60;;;23.90;55.10;;;;;;4492500;31;20223;-69
2022/07/03 01:44:58;;;;;;;1.92;0.60;;;23.90;55.20;;;;;;4492266;31;20430;-68
2022/07/03 01:47:24;;;;;;;0.70;0.40;;;23.90;55.10;;;;;;4492308;31;20085;-69
2022/07/03 01:49:53;;;;;;;1.48;0.70;;;23.90;55.20;;;;;;4492184;31;20085;-70
2022/07/03 01:52:20;;;;;;;0.52;0.40;;;23.90;55.20;;;;;;4491043;31;20225;-68
2022/07/03 01:54:47;;;;;;;1.98;0.50;;;23.90;55.20;;;;;;4492197;31;20542;-68
2022/07/03 01:57:14;;;;;;;0.90;0.50;;;23.90;55.20;;;;;;4491968;31;20080;-69
2022/07/03 01:59:40;;;;;;;2.28;0.60;;;23.90;55.20;;;;;;4492052;31;20511;-69
2022/07/03 02:02:29;;;;;;;0.90;0.50;;;23.90;55.20;;;;;;4492257;31;20177;-69
2022/07/03 02:05:37;;;;;;;0.63;0.38;;;23.90;55.20;;;;;;4492349;31;20113;-69
2022/07/03 02:08:09;;;;;;;0.68;0.30;;;23.90;55.10;;;;;;4468626;31;20084;-68
2022/07/03 02:10:46;;;;;;;0.40;0.30;;;23.90;55.20;;;;;;4492308;31;20097;-69
2022/07/03 02:13:19;;;;;;;1.10;0.50;;;23.90;55.20;;;;;;4492731;31;20132;-69
2022/07/03 02:15:49;;;;;;;0.70;0.40;;;23.90;55.20;;;;;;4492094;31;20170;-68
2022/07/03 02:18:32;;;;;;;1.00;0.60;;;23.90;55.20;;;;;;4492215;31;20121;-69
2022/07/03 02:21:14;;;;;;;0.55;0.40;;;23.90;55.20;;;;;;4491996;31;20061;-69
2022/07/03 02:23:55;;;;;;;1.40;0.60;;;23.90;55.20;;;;;;4492341;31;20372;-69
2022/07/03 02:26:29;;;;;;;1.55;0.63;;;23.90;55.20;;;;;;4492164;31;20088;-68
2022/07/03 02:29:02;;;;;;;1.27;0.50;;;23.80;55.20;;;;;;4492105;31;20542;-69
2022/07/03 02:31:39;;;;;;;0.80;0.47;;;23.80;55.20;;;;;;4492057;31;20233;-69
2022/07/03 02:34:06;;;;;;;1.00;0.45;;;23.80;55.20;;;;;;4492020;31;20351;-68
2022/07/03 02:36:35;;;;;;;0.75;0.40;;;23.80;55.20;;;;;;4491930;32;20227;-68
2022/07/03 02:39:01;;;;;;;0.50;0.35;;;23.80;55.20;;;;;;4491894;32;20092;-68
2022/07/03 02:41:46;;;;;;;0.93;0.50;;;23.80;55.20;;;;;;4492170;32;20092;-69
2022/07/03 02:44:25;;;;;;;0.68;0.40;;;23.80;55.20;;;;;;4491640;32;20085;-68
2022/07/03 02:47:14;;;;;;;0.77;0.35;;;23.80;55.20;;;;;;4491423;32;20077;-68
2022/07/03 02:49:43;;;;;;;0.80;0.57;;;23.80;55.20;;;;;;4491712;32;20196;-68
2022/07/03 02:52:34;;;;;;;1.25;0.50;;;23.80;55.20;;;;;;4490960;32;20066;-68
2022/07/03 02:55:21;;;;;;;0.95;0.38;;;23.80;55.20;;;;;;4492048;32;20476;-68
2022/07/03 02:57:57;;;;;;;1.23;0.50;;;23.80;55.30;;;;;;4491990;32;20077;-68
2022/07/03 03:00:24;;;;;;;1.25;0.52;;;23.80;55.30;;;;;;4491045;32;20140;-68
2022/07/03 03:02:57;;;;;;;0.65;0.40;;;23.80;55.30;;;;;;4491942;32;20073;-68
2022/07/03 03:05:48;;;;;;;0.70;0.38;;;23.80;55.30;;;;;;4491891;32;20128;-68
2022/07/03 03:08:41;;;;;;;0.70;0.50;;;23.80;55.30;;;;;;4491836;32;20087;-69
2022/07/03 03:11:20;;;;;;;0.60;0.40;;;23.80;55.30;;;;;;4491520;32;20510;-70
2022/07/03 03:13:50;;;;;;;1.10;0.50;;;23.80;55.30;;;;;;4491545;32;20152;-69
2022/07/03 03:16:15;;;;;;;0.60;0.30;;;23.80;55.30;;;;;;4490513;32;20569;-69
2022/07/03 03:18:44;;;;;;;0.90;0.30;;;23.70;55.30;;;;;;4491608;32;20100;-69
2022/07/03 03:21:15;;;;;;;1.92;0.50;;;23.80;55.40;;;;;;4490575;32;20091;-68
2022/07/03 03:23:54;;;;;;;1.08;0.52;;;23.80;55.40;;;;;;4491479;32;20218;-68
2022/07/03 03:26:22;;;;;;;1.15;0.63;;;23.80;55.40;;;;;;4491561;32;20085;-68
2022/07/03 03:28:49;;;;;;;0.77;0.50;;;23.70;55.30;;;;;;4490244;32;20495;-69
2022/07/03 03:31:15;;;;;;;1.00;0.35;;;23.70;55.30;;;;;;4491537;32;20093;-69
2022/07/03 03:33:43;;;;;;;0.43;0.30;;;23.70;55.30;;;;;;4491761;31;20075;-68
2022/07/03 03:36:11;;;;;;;0.77;0.40;;;23.70;55.30;;;;;;4494151;31;20391;-68
2022/07/03 03:38:38;;;;;;;0.55;0.50;;;23.70;55.30;;;;;;4494325;31;20092;-69
2022/07/03 03:41:05;;;;;;;0.98;0.40;;;23.70;55.30;;;;;;4494383;31;20081;-68
2022/07/03 03:43:31;;;;;;;0.90;0.35;;;23.70;55.40;;;;;;4494344;31;20499;-69
2022/07/03 03:45:58;;;;;;;0.93;0.43;;;23.70;55.30;;;;;;4492781;31;20084;-68
2022/07/03 03:48:26;;;;;;;0.50;0.30;;;23.70;55.40;;;;;;4494364;31;20064;-69
2022/07/03 03:50:53;;;;;;;0.80;0.50;;;23.70;55.40;;;;;;4493161;31;20207;-68
2022/07/03 03:53:19;;;;;;;1.08;0.55;;;23.70;55.40;;;;;;4494253;31;20199;-68
2022/07/03 03:56:00;;;;;;;0.70;0.32;;;23.70;55.40;;;;;;4492664;31;20104;-68
2022/07/03 03:58:31;;;;;;;0.80;0.30;;;23.70;55.30;;;;;;4494499;31;20085;-69
2022/07/03 04:00:58;;;;;;;0.80;0.50;;;23.70;55.40;;;;;;4494195;31;20423;-68
2022/07/03 04:03:25;;;;;;;0.60;0.30;;;23.70;55.40;;;;;;4494080;31;20092;-68
2022/07/03 04:05:51;;;;;;;0.95;0.50;;;23.60;55.40;;;;;;4494262;31;20081;-68
2022/07/03 04:08:17;;;;;;;0.60;0.45;;;23.70;55.40;;;;;;4492923;31;20126;-68
2022/07/03 04:10:43;;;;;;;0.80;0.30;;;23.60;55.40;;;;;;4494267;31;20568;-68
2022/07/03 04:13:09;;;;;;;0.52;0.30;;;23.60;55.40;;;;;;4493879;31;20073;-68
2022/07/03 04:15:35;;;;;;;0.82;0.30;;;23.60;55.40;;;;;;4494110;31;20241;-69
2022/07/03 04:18:01;;;;;;;0.93;0.50;;;23.60;55.40;;;;;;4493549;31;20603;-68
2022/07/03 04:20:27;;;;;;;0.55;0.35;;;23.60;55.40;;;;;;4494104;31;20190;-69
2022/07/03 04:22:53;;;;;;;1.00;0.55;;;23.60;55.40;;;;;;4493472;31;20203;-69
2022/07/03 04:25:19;;;;;;;1.08;0.50;;;23.60;55.40;;;;;;4493694;31;20073;-68
2022/07/03 04:27:45;;;;;;;1.08;0.50;;;23.60;55.40;;;;;;4493330;31;20101;-68
2022/07/03 04:30:11;;;;;;;0.50;0.30;;;23.60;55.40;;;;;;4493937;31;20065;-68
2022/07/03 04:32:38;;;;;;;1.02;0.50;;;23.60;55.40;;;;;;4493306;31;20069;-68
2022/07/03 04:35:04;;;;;;;0.52;0.40;;;23.60;55.40;;;;;;4493531;31;20254;-68
2022/07/03 04:37:30;;;;;;;0.73;0.40;;;23.60;55.40;;;;;;4493816;31;20124;-69
2022/07/03 04:39:56;;;;;;;0.70;0.35;;;23.60;55.40;;;;;;4493739;31;20512;-68
2022/07/03 04:42:22;;;;;;;0.70;0.30;;;23.60;55.50;;;;;;4493219;31;20127;-68
2022/07/03 04:44:47;;;;;;;1.17;0.50;;;23.60;55.50;;;;;;4493447;31;20210;-69
2022/07/03 04:47:14;;;;;;;0.47;0.30;;;23.60;55.50;;;;;;4491205;31;20158;-68
2022/07/03 04:49:41;;;;;;;0.70;0.40;;;23.60;55.50;;;;;;4492484;31;20080;-68
2022/07/03 04:52:08;;;;;;;0.82;0.30;;;23.60;55.50;;;;;;4493330;31;20077;-68
2022/07/03 04:54:34;;;;;;;1.05;0.52;;;23.60;55.50;;;;;;4493202;31;20131;-69
2022/07/03 04:56:59;;;;;;;0.52;0.30;;;23.60;55.50;;;;;;4493386;31;20081;-68
2022/07/03 04:59:25;;;;;;;0.63;0.50;;;23.60;55.50;;;;;;4492909;31;20250;-68
2022/07/03 05:01:51;;;;;;;0.90;0.45;;;23.60;55.50;;;;;;4493461;31;20077;-69
2022/07/03 05:04:17;;;;;;;0.77;0.35;;;23.60;55.50;;;;;;4492880;31;20069;-68
2022/07/03 05:06:44;;;;;;;0.50;0.40;;;23.60;55.50;;;;;;4492805;31;20065;-68
2022/07/03 05:09:09;;;;;;;0.80;0.43;;;23.60;55.50;;;;;;4492851;31;20162;-68
2022/07/03 05:11:35;;;;;;;2.20;0.50;;;23.60;55.50;;;;;;4492994;31;20113;-68
2022/07/03 05:14:03;;;;;;;1.52;0.40;;;23.60;56.50;;;;;;4492978;31;20088;-68
2022/07/03 05:16:29;;;;;;;0.43;0.30;;;23.60;55.50;;;;;;4492832;31;20083;-69
2022/07/03 05:18:55;;;;;;;0.70;0.40;;;23.60;55.60;;;;;;4492884;31;20503;-69
2022/07/03 05:21:21;;;;;;;0.70;0.40;;;23.60;55.50;;;;;;4492864;31;20088;-68
2022/07/03 05:23:47;;;;;;;0.63;0.38;;;23.60;55.50;;;;;;4492823;31;20076;-68
2022/07/03 05:26:13;;;;;;;0.45;0.30;;;23.60;55.50;;;;;;4492424;31;20431;-69
2022/07/03 05:28:39;;;;;;;0.95;0.30;;;23.60;55.50;;;;;;4492731;31;20162;-68
2022/07/03 05:31:05;;;;;;;0.73;0.60;;;23.60;55.50;;;;;;4492988;31;20073;-68
2022/07/03 05:33:31;;;;;;;0.40;0.35;;;23.50;55.50;;;;;;4492679;31;20065;-68
2022/07/03 05:35:57;;;;;;;0.55;0.30;;;23.60;55.60;;;;;;4492601;31;20170;-68
2022/07/03 05:41:08;;;;;;;0.40;0.35;;;23.60;55.60;;;;;;4492917;31;20174;-68
2022/07/03 05:43:34;;;;;;;0.80;0.30;;;23.60;55.60;;;;;;4478438;31;20406;-68
2022/07/03 05:46:00;;;;;;;0.45;0.30;;;23.60;55.60;;;;;;4492310;31;20104;-68
2022/07/03 05:48:26;;;;;;;0.68;0.40;;;23.60;55.60;;;;;;4492855;31;20546;-68
2022/07/03 05:50:52;;;;;;;0.50;0.40;;;23.50;55.60;;;;;;4492433;31;20163;-68
2022/07/03 05:53:17;;;;;;;0.30;0.28;;;23.50;55.60;;;;;;4492186;31;20077;-68
2022/07/03 05:55:43;;;;;;;0.50;0.30;;;23.60;55.60;;;;;;4491156;31;20081;-68
2022/07/03 05:58:09;;;;;;;0.93;0.32;;;23.50;55.60;;;;;;4491721;31;20073;-68
2022/07/03 06:00:35;;;;;;;0.93;0.35;;;23.60;55.60;;;;;;4492092;31;20108;-68
2022/07/03 06:03:02;;;;;;;0.50;0.30;;;23.60;55.60;;;;;;4492288;31;20121;-68
2022/07/03 06:05:28;;;;;;;0.38;0.32;;;23.60;55.60;;;;;;4490899;31;20100;-68
2022/07/03 06:07:54;;;;;;;0.50;0.40;;;23.60;55.60;;;;;;4492310;31;20093;-68
2022/07/03 06:10:20;;;;;;;0.40;0.32;;;23.60;55.60;;;;;;4492482;31;20083;-68
2022/07/03 06:12:46;;;;;;;0.50;0.40;;;23.60;55.60;;;;;;4492156;31;20167;-68
2022/07/03 06:15:11;;;;;;;0.85;0.40;;;23.60;55.70;;;;;;4491875;31;20109;-68
2022/07/03 06:17:37;;;;;;;0.55;0.30;;;23.60;55.70;;;;;;4492090;31;20159;-68
2022/07/03 06:20:05;;;;;;;0.63;0.30;;;23.60;55.70;;;;;;4491854;31;20073;-68
2022/07/03 06:22:32;;;;;;;0.32;0.22;;;23.60;55.70;;;;;;4491848;31;20120;-69
2022/07/03 06:24:58;;;;;;;0.45;0.32;;;23.60;56.60;;;;;;4490755;31;20091;-68
2022/07/03 06:27:25;;;;;;;0.40;0.30;;;23.60;55.70;;;;;;4491963;31;20065;-69
2022/07/03 06:29:51;;;;;;;0.60;0.40;;;23.60;55.70;;;;;;4492021;31;20153;-68
2022/07/03 06:32:17;;;;;;;0.50;0.30;;;23.60;55.60;;;;;;4492202;31;20402;-69
2022/07/03 06:34:43;;;;;;;0.82;0.32;;;23.60;55.60;;;;;;4491884;31;20522;-68
2022/07/03 06:37:10;;;;;;;0.65;0.35;;;23.60;55.60;;;;;;4490625;31;20158;-68
2022/07/03 06:39:35;;;;;;;0.30;0.20;;;23.60;55.60;;;;;;4491672;32;20073;-68
2022/07/03 06:42:01;;;;;;;0.30;0.30;;;23.60;55.60;;;;;;4491918;32;20073;-69
2022/07/03 06:44:27;;;;;;;0.43;0.20;;;23.60;55.70;;;;;;4491893;32;20088;-68
2022/07/03 06:46:53;;;;;;;0.40;0.30;;;23.60;55.70;;;;;;4491833;31;20073;-69
2022/07/03 06:49:19;;;;;;;0.90;0.50;;;23.60;55.70;;;;;;4491793;32;20073;-69
2022/07/03 06:51:46;;;;;;;0.40;0.30;;;23.60;55.70;;;;;;4492023;32;20141;-68
2022/07/03 06:54:11;;;;;;;0.55;0.35;;;23.60;55.80;;;;;;4491765;32;20081;-70
2022/07/03 06:56:38;;;;;;;0.60;0.50;;;23.60;55.80;;;;;;4491790;32;20167;-69
2022/07/03 06:59:04;;;;;;;0.80;0.30;;;23.60;55.80;;;;;;4491610;32;20069;-69
2022/07/03 07:01:30;;;;;;;0.35;0.28;;;23.60;55.80;;;;;;4492029;32;20076;-70
2022/07/03 07:03:56;;;;;;;0.57;0.40;;;23.60;55.80;;;;;;4491992;32;20266;-70
2022/07/03 07:06:22;;;;;;;1.02;0.47;;;23.60;55.80;;;;;;4491442;32;20215;-69
2022/07/03 07:08:48;;;;;;;0.50;0.30;;;23.60;55.80;;;;;;4491898;31;20085;-70
2022/07/03 07:11:14;;;;;;;0.38;0.30;;;23.60;55.80;;;;;;4494791;31;20085;-69
2022/07/03 07:13:41;;;;;;;0.38;0.30;;;23.60;55.80;;;;;;4494933;31;20523;-70
2022/07/03 07:16:07;;;;;;;0.95;0.40;;;23.60;55.80;;;;;;4494933;31;20070;-70
2022/07/03 07:18:34;;;;;;;0.30;0.30;;;23.60;55.80;;;;;;4493726;31;20073;-70
2022/07/03 07:21:00;;;;;;;0.50;0.30;;;23.60;55.90;;;;;;4494989;31;20069;-70
2022/07/03 07:23:27;;;;;;;0.70;0.40;;;23.60;55.90;;;;;;4494401;31;20115;-69
2022/07/03 07:25:52;;;;;;;0.80;0.60;;;23.60;56.00;;;;;;4494855;31;20053;-77
2022/07/03 07:28:18;;;;;;;0.52;0.30;;;23.60;56.00;;;;;;4494779;31;20155;-70
2022/07/03 07:30:44;;;;;;;2.00;0.30;;;23.70;56.00;;;;;;4494284;31;20085;-68
2022/07/03 07:33:10;;;;;;;1.90;0.40;;;23.70;56.10;;;;;;4494841;31;20174;-68
2022/07/03 07:35:36;;;;;;;0.80;0.40;;;23.70;56.00;;;;;;4494124;31;20136;-68
2022/07/03 07:38:02;;;;;;;0.88;0.40;;;23.80;57.10;;;;;;4494460;31;20503;-68
2022/07/03 07:40:28;;;;;;;1.50;0.40;;;23.80;56.10;;;;;;4494170;31;20518;-69
2022/07/03 07:42:54;;;;;;;2.60;0.50;;;23.80;56.10;;;;;;4494387;31;20099;-68
2022/07/03 07:45:21;;;;;;;3.70;0.57;;;23.80;56.30;;;;;;4494294;31;20073;-68
2022/07/03 07:47:47;;;;;;;2.30;0.80;;;23.90;56.30;;;;;;4494104;31;20096;-68
2022/07/03 07:50:14;;;;;;;1.50;0.50;;;23.90;56.40;;;;;;4493385;31;20479;-68
2022/07/03 07:52:40;;;;;;;1.90;0.50;;;23.90;56.40;;;;;;4494207;31;20088;-68
2022/07/03 07:55:07;;;;;;;1.75;0.60;;;23.90;56.50;;;;;;4494139;31;20105;-69
2022/07/03 07:57:40;;;;;;;2.28;0.63;;;23.90;56.60;;;;;;4494304;31;20396;-68
2022/07/03 08:00:07;;;;;;;;;;;23.90;56.60;;;;;;4493517;31;20566;-68
2022/07/03 08:05:36;;;;;;;2.33;0.88;;;23.90;56.70;;;;;;4494405;31;20104;-69
2022/07/03 08:08:13;;;;;;;2.92;0.63;;;23.90;56.70;;;;;;4494283;31;20069;-68
2022/07/03 08:10:48;;;;;;;4.78;0.70;;;24.00;56.90;;;;;;4492613;31;20407;-67
2022/07/03 08:13:16;;;;;;;2.00;0.68;;;24.00;57.00;;;;;;4494297;31;20498;-68
2022/07/03 08:15:43;;;;;;;0.80;0.38;;;24.00;57.00;;;;;;4493834;31;20083;-68
2022/07/03 08:18:10;;;;;;;4.55;0.75;;;24.10;57.00;;;;;;4492485;31;20502;-67
2022/07/03 08:20:36;;;;;;;1.77;0.70;;;24.10;57.00;;;;;;4493578;31;20625;-76
2022/07/03 08:23:04;;;;;;;5.53;0.50;;;24.10;56.90;;;;;;4494001;31;20391;-67
2022/07/03 08:25:31;;;;;;;2.00;0.68;;;24.20;57.00;;;;;;4493759;31;20435;-68
2022/07/03 08:27:58;;;;;;;3.30;0.65;;;24.20;56.90;;;;;;4493571;31;20091;-67
2022/07/03 08:30:25;;;;;;;1.73;0.82;;;24.20;56.90;;;;;;4493937;31;20073;-68
2022/07/03 08:32:53;;;;;;;1.75;0.57;;;24.20;56.80;;;;;;4493573;31;20089;-67
2022/07/03 08:35:19;;;;;;;2.22;0.57;;;24.20;56.80;;;;;;4493500;31;20410;-68
2022/07/03 08:37:47;;;;;;;2.13;0.70;;;24.30;56.70;;;;;;4493522;31;20069;-67
2022/07/03 08:40:14;;;;;;;3.50;0.88;;;24.30;56.70;;;;;;4493199;31;20089;-68
2022/07/03 08:42:47;;;;;;;3.30;0.80;;;24.40;56.70;;;;;;4493460;31;20408;-68
2022/07/03 08:45:17;;;;;;;1.77;0.68;;;24.40;56.70;;;;;;4493533;31;20131;-68
2022/07/03 08:47:45;;;;;;;1.05;0.40;;;24.40;56.50;;;;;;4493188;31;20093;-68
2022/07/03 08:50:17;;;;;;;2.13;0.50;;;24.40;56.50;;;;;;4493352;31;20077;-68
2022/07/03 08:52:44;;;;;;;2.63;0.70;;;24.50;56.50;;;;;;4493037;31;20226;-67
2022/07/03 08:55:11;;;;;;;1.17;0.43;;;24.50;56.40;;;;;;4493183;31;20077;-68
2022/07/03 08:57:38;;;;;;;1.63;0.45;;;24.50;56.40;;;;;;4491818;31;20101;-68
2022/07/03 09:00:06;;;;;;;2.53;0.65;;;24.50;56.30;;;;;;4492922;31;20147;-68
2022/07/03 09:02:33;;;;;;;2.28;0.45;;;24.60;56.20;;;;;;4493410;31;20077;-69
2022/07/03 09:05:01;;;;;;;3.50;0.50;;;24.60;56.10;;;;;;4493123;31;20116;-68
2022/07/03 09:07:30;;;;;;;4.60;0.60;;;24.70;56.00;;;;;;4493066;31;20092;-68
2022/07/03 09:09:56;;;;;;;1.92;0.50;;;24.70;55.90;;;;;;4493035;31;20108;-67
2022/07/03 09:12:22;;;;;;;2.17;0.50;;;24.70;55.60;;;;;;4493012;31;20093;-67
2022/07/03 09:14:48;;;;;;;3.70;0.52;;;24.70;55.40;;;;;;4492648;31;20217;-67
2022/07/03 09:17:15;;;;;;;6.22;0.70;;;24.70;55.10;;;;;;4491863;31;20081;-68
2022/07/03 09:19:48;;;;;;;1.45;0.47;;;24.80;55.10;;;;;;4492602;31;20161;-68
2022/07/03 09:22:25;;;;;;;2.65;0.93;;;24.90;54.70;;;;;;4492618;31;20318;-68
2022/07/03 09:25:04;;;;;;;1.95;0.70;;;24.90;54.40;;;;;;4492938;31;20112;-68
2022/07/03 09:27:30;;;;;;;1.88;0.40;;;24.90;54.20;;;;;;4491400;31;20314;-68
2022/07/03 09:30:01;;;;;;;3.88;0.80;;;25.00;54.00;;;;;;4492949;31;20530;-68
2022/07/03 09:32:32;;;;;;;1.10;0.50;;;25.00;53.90;;;;;;4492322;31;20105;-68
2022/07/03 09:35:17;;;;;;;0.95;0.50;;;25.00;53.60;;;;;;4492958;31;20089;-68
2022/07/03 09:38:01;;;;;;;2.22;0.80;;;25.00;53.30;;;;;;4492360;31;20081;-68
2022/07/03 09:40:29;;;;;;;;;;;25.10;53.10;;;;;;4493590;31;20076;-68
2022/07/03 09:42:59;;;;;;;1.90;0.60;;;25.10;52.70;;;;;;4492322;31;19989;-68
2022/07/03 09:45:26;;;;;;;0.95;0.47;;;25.10;52.80;;;;;;4491679;31;20088;-69
2022/07/03 09:47:52;;;;;;;1.92;0.40;;;25.10;52.40;;;;;;4492266;31;20093;-68
2022/07/03 09:50:18;;;;;;;2.53;0.32;;;25.20;52.30;;;;;;4492455;31;20083;-68
2022/07/03 09:52:46;;;;;;;1.95;0.50;;;25.10;52.00;;;;;;4492171;31;20065;-68
2022/07/03 09:55:12;;;;;;;2.25;0.40;;;25.10;51.80;;;;;;4492324;31;20089;-71
2022/07/03 09:57:51;;;;;;;1.55;0.50;;;25.10;51.60;;;;;;4492525;31;20091;-68
2022/07/03 10:00:25;;;;;;;1.23;0.40;;;25.10;51.20;;;;;;4492636;31;20175;-68
2022/07/03 10:03:05;;;;;;;3.15;0.43;;;25.20;51.20;;;;;;4492573;31;20228;-68
2022/07/03 10:05:36;;;;;;;1.73;0.40;;;25.20;51.10;;;;;;4492387;31;20498;-68
2022/07/03 10:08:10;;;;;;;1.77;0.25;;;25.20;51.00;;;;;;4492358;31;20076;-68
2022/07/03 10:10:39;;;;;;;1.05;0.55;;;25.20;50.90;;;;;;4492618;31;20105;-68
2022/07/03 10:13:06;;;;;;;0.80;0.40;;;25.30;51.00;;;;;;4492380;31;20097;-68
2022/07/03 10:15:36;;;;;;;1.38;0.60;;;25.30;51.00;;;;;;4491792;31;20398;-68
2022/07/03 10:18:05;;;;;;;1.20;0.50;;;25.30;50.80;;;;;;4492206;31;20065;-68
2022/07/03 10:20:43;;;;;;;1.60;0.47;;;25.30;50.90;;;;;;4492524;31;20083;-68
2022/07/03 10:23:09;;;;;;;2.10;0.50;;;25.30;51.10;;;;;;4492195;31;20069;-68
2022/07/03 10:25:36;;;;;;;2.30;0.50;;;25.30;51.30;;;;;;4492031;31;20162;-69
2022/07/03 10:28:04;;;;;;;4.72;0.85;;;25.30;51.90;;;;;;4491990;31;20077;-68
2022/07/03 10:30:31;;;;;;;2.33;1.00;;;25.30;52.40;;;;;;4491707;31;20111;-68
2022/07/03 10:32:57;;;;;;;4.55;0.93;;;25.30;52.70;;;;;;4491955;31;20243;-68
2022/07/03 10:35:34;;;;;;;2.25;0.70;;;25.30;52.90;;;;;;4491068;31;20223;-68
2022/07/03 10:38:02;;;;;;;2.13;0.80;;;25.30;53.20;;;;;;4491972;31;20147;-68
2022/07/03 10:46:15;;;;;;;6.00;1.10;;;25.30;53.60;;;;;;4495271;31;20169;-68
2022/07/03 10:48:55;;;;;;;4.65;1.10;;;25.20;53.70;;;;;;4495153;31;20085;-68
2022/07/03 10:51:22;;;;;;;4.53;1.10;;;25.20;53.90;;;;;;4495311;31;20077;-68
2022/07/03 10:53:48;;;;;;;4.40;1.13;;;25.20;54.00;;;;;;4495036;31;20227;-68
2022/07/03 10:56:14;;;;;;;6.05;1.30;;;25.10;54.10;;;;;;4494854;31;20061;-68
2022/07/03 10:58:59;;;;;;;3.95;1.10;;;25.10;54.40;;;;;;4494995;31;20089;-68
2022/07/03 11:01:27;;;;;;;4.22;1.08;;;25.10;54.50;;;;;;4495006;31;20073;-68
2022/07/03 11:03:54;;;;;;;5.15;1.15;;;25.10;54.60;;;;;;4494688;31;20190;-68
2022/07/03 11:06:20;;;;;;;4.72;1.20;;;25.00;54.70;;;;;;4494680;31;20124;-68
2022/07/03 11:09:03;;;;;;;5.13;1.20;;;25.00;54.90;;;;;;4494595;31;20214;-68
2022/07/03 11:11:55;;;;;;;4.07;1.35;;;25.00;55.00;;;;;;4495103;31;20089;-68
2022/07/03 11:14:25;;;;;;;4.38;1.10;;;25.00;55.10;;;;;;4494820;31;20080;-68
2022/07/03 11:17:26;;;;;;;3.97;1.20;;;25.00;55.30;;;;;;4494922;31;20073;-68
2022/07/03 11:22:56;;;;;;;5.95;1.40;;;24.90;55.40;;;;;;4490766;31;20097;-69
2022/07/03 11:25:25;;;;;;;4.85;1.67;;;24.90;55.40;;;;;;4469952;31;20495;-68
2022/07/03 11:27:52;;;;;;;6.20;1.50;;;24.90;55.60;;;;;;4494437;31;20572;-67
2022/07/03 11:30:21;;;;;;;4.32;1.05;;;24.90;55.70;;;;;;4494439;31;20182;-68
2022/07/03 11:32:57;;;;;;;4.00;1.02;;;24.90;56.60;;;;;;4494469;31;20250;-69
2022/07/03 11:35:50;;;;;;;6.68;1.50;;;24.90;55.80;;;;;;4494810;31;20102;-69
2022/07/03 11:38:20;;;;;;;7.63;1.65;;;24.90;55.90;;;;;;4489726;31;20444;-69
2022/07/03 11:40:48;;;;;;;5.45;1.40;;;24.90;56.00;;;;;;4494687;31;20085;-67
2022/07/03 11:43:13;;;;;;;6.50;1.30;;;24.90;56.10;;;;;;4494083;31;20089;-67
2022/07/03 11:45:41;;;;;;;7.18;1.27;;;24.80;56.10;;;;;;4494321;31;20155;-67
2022/07/03 11:48:34;;;;;;;5.00;1.10;;;24.80;56.10;;;;;;4493892;31;20105;-67
2022/07/03 11:51:04;;;;;;;6.07;1.27;;;24.90;56.30;;;;;;4491998;31;20434;-66
2022/07/03 11:53:32;;;;;;;4.30;1.10;;;24.90;56.60;;;;;;4494452;31;20422;-69
2022/07/03 11:56:06;;;;;;;5.25;1.00;;;24.90;56.70;;;;;;4493830;31;20084;-68
2022/07/03 11:58:43;;;;;;;6.95;1.20;;;24.90;56.50;;;;;;4494034;31;20070;-69
2022/07/03 12:01:10;;;;;;;4.78;1.05;;;24.90;56.60;;;;;;4494331;31;20190;-68
2022/07/03 12:03:36;;;;;;;7.25;1.45;;;24.90;56.50;;;;;;4494010;31;20081;-73
2022/07/03 12:06:02;;;;;;;3.50;1.50;;;24.90;56.50;;;;;;4494043;31;20108;-67
2022/07/03 12:08:31;;;;;;;3.75;1.08;;;24.90;56.60;;;;;;4494466;31;20490;-67
2022/07/03 12:11:02;;;;;;;3.10;0.73;;;24.90;56.70;;;;;;4493953;31;20138;-67
2022/07/03 12:13:30;;;;;;;4.88;1.02;;;24.90;56.70;;;;;;4494300;31;20069;-67
2022/07/03 12:16:02;;;;;;;6.28;1.10;;;25.00;56.60;;;;;;4492924;31;20482;-67
2022/07/03 12:18:41;;;;;;;3.67;0.90;;;25.00;57.50;;;;;;4494195;31;20207;-67
2022/07/03 12:21:07;;;;;;;3.70;0.90;;;25.00;56.60;;;;;;4493884;31;20250;-67
2022/07/03 12:23:47;;;;;;;3.13;1.00;;;24.90;56.60;;;;;;4494067;31;20076;-67
2022/07/03 12:26:14;;;;;;;3.80;1.00;;;24.90;56.40;;;;;;4493702;31;20089;-68
2022/07/03 12:28:40;;;;;;;4.45;1.20;;;24.90;56.50;;;;;;4493574;31;20161;-67
2022/07/03 12:31:07;;;;;;;5.72;1.00;;;24.90;56.60;;;;;;4494064;31;20269;-67
2022/07/03 12:33:35;;;;;;;6.30;0.95;;;24.90;56.40;;;;;;4493854;31;20073;-67
2022/07/03 12:36:08;;;;;;;2.38;0.90;;;24.80;56.40;;;;;;4493746;31;20231;-67
2022/07/03 12:38:39;;;;;;;5.95;1.10;;;24.80;56.40;;;;;;4494086;31;20073;-67
2022/07/03 12:41:09;;;;;;;2.47;0.80;;;24.80;56.40;;;;;;4493570;31;20073;-75
2022/07/03 12:43:41;;;;;;;5.80;1.13;;;24.70;56.30;;;;;;4493579;31;20131;-67
2022/07/03 12:46:32;;;;;;;4.45;1.00;;;24.70;56.40;;;;;;4493006;31;20242;-70
2022/07/03 12:49:07;;;;;;;2.42;1.17;;;24.70;56.40;;;;;;4493260;31;20211;-66
2022/07/03 12:51:39;;;;;;;3.58;1.17;;;24.70;56.50;;;;;;4493367;31;20100;-67
2022/07/03 12:54:15;;;;;;;3.95;1.15;;;24.70;56.70;;;;;;4493117;31;20120;-68
2022/07/03 12:56:44;;;;;;;3.03;0.88;;;24.70;56.70;;;;;;4492123;31;20080;-67
2022/07/03 12:59:27;;;;;;;5.47;0.95;;;24.70;56.90;;;;;;4492160;31;20087;-67
2022/07/03 13:02:05;;;;;;;4.22;0.75;;;24.80;56.90;;;;;;4493330;31;20065;-67
2022/07/03 13:04:37;;;;;;;4.05;0.80;;;24.80;56.80;;;;;;4493217;31;20099;-67
2022/07/03 13:07:03;;;;;;;3.55;0.70;;;24.80;56.80;;;;;;4492350;31;20219;-67
2022/07/03 13:09:29;;;;;;;3.60;0.90;;;24.80;56.70;;;;;;4493300;31;20215;-67
2022/07/03 13:11:55;;;;;;;7.10;0.93;;;24.80;56.60;;;;;;4492767;31;20157;-67
2022/07/03 13:14:20;;;;;;;3.72;0.88;;;24.80;56.60;;;;;;4493269;31;20227;-67
2022/07/03 13:16:49;;;;;;;5.10;0.95;;;24.80;56.60;;;;;;4492594;31;20085;-67